Time;durP1;ratioP1;P1;durP2;ratioP2;P2;SDS_P1;SDS_P2;PMS_P1;PMS_P2;Temp;Humidity;BMP_temperature;BMP_pressure;BME280_temperature;BME280_humidity;BME280_pressure;Samples;Min_cycle;Max_cycle;Signal;HPM_P1;HPM_P2
2022/05/15 00:00:37;;;;;;;22.92;12.35;;;;;;;9.17;86.69;101831.03;10528953;27;20067;-77
2022/05/15 00:05:37;;;;;;;22.55;12.18;;;;;;;9.20;87.16;101820.78;10525689;27;20071;-77
2022/05/15 00:10:39;;;;;;;16.83;11.43;;;;;;;9.17;87.19;101823.19;10526182;27;20119;-77
2022/05/15 00:15:39;;;;;;;28.40;12.82;;;;;;;9.13;86.65;101824.69;10526789;27;20123;-77
2022/05/15 00:20:40;;;;;;;18.05;10.98;;;;;;;9.05;86.58;101818.94;10526279;27;20395;-77
2022/05/15 00:25:40;;;;;;;22.38;12.32;;;;;;;8.98;87.07;101829.75;10527766;27;20129;-77
2022/05/15 00:30:41;;;;;;;21.38;12.45;;;;;;;8.95;87.06;101825.25;10525971;27;20028;-77
2022/05/15 00:35:42;;;;;;;20.13;11.82;;;;;;;8.93;87.81;101820.69;10523589;27;20035;-77
2022/05/15 00:40:43;;;;;;;23.83;13.73;;;;;;;8.87;87.27;101815.97;10542381;27;20115;-77
2022/05/15 00:45:44;;;;;;;25.37;12.47;;;;;;;8.84;87.80;101814.84;10524704;27;20181;-77
2022/05/15 00:50:44;;;;;;;18.52;12.27;;;;;;;8.81;87.66;101823.38;10524851;27;20093;-77
2022/05/15 00:55:46;;;;;;;24.95;13.77;;;;;;;8.77;88.33;101813.50;10524772;27;20506;-77
2022/05/15 01:00:47;;;;;;;26.70;11.65;;;;;;;8.75;88.24;101820.34;10526439;27;20101;-77
2022/05/15 01:05:52;;;;;;;26.30;13.15;;;;;;;8.69;87.74;101815.56;10510271;27;20036;-77
2022/05/15 01:10:58;;;;;;;22.77;11.73;;;;;;;8.71;87.68;101815.69;10508436;27;20424;-77
2022/05/15 01:15:59;;;;;;;28.75;13.77;;;;;;;8.58;87.28;101816.50;10523972;27;20036;-77
2022/05/15 01:21:00;;;;;;;25.30;12.35;;;;;;;8.48;87.73;101826.25;10508157;27;20060;-77
2022/05/15 01:26:00;;;;;;;24.25;12.93;;;;;;;8.44;88.08;101828.56;10528929;27;20043;-76
2022/05/15 01:31:01;;;;;;;23.25;11.38;;;;;;;8.35;88.69;101824.50;10532367;27;20118;-75
2022/05/15 01:36:01;;;;;;;19.88;11.48;;;;;;;8.33;88.29;101825.16;10531365;27;20059;-76
2022/05/15 01:41:02;;;;;;;22.27;12.07;;;;;;;8.36;88.59;101821.09;10515681;27;20040;-76
2022/05/15 01:46:02;;;;;;;24.40;9.27;;;;;;;8.35;88.22;101824.50;10532195;27;20036;-76
2022/05/15 01:51:03;;;;;;;24.70;10.48;;;;;;;8.20;88.64;101821.66;10532977;27;20606;-77
2022/05/15 01:56:04;;;;;;;25.17;10.30;;;;;;;8.08;88.71;101816.47;10514940;27;20123;-76
2022/05/15 02:01:05;;;;;;;23.27;12.30;;;;;;;8.03;88.96;101828.28;10533841;27;20043;-76
2022/05/15 02:06:05;;;;;;;21.17;10.43;;;;;;;8.01;89.31;101824.66;10548064;27;20063;-76
2022/05/15 02:11:06;;;;;;;19.90;9.73;;;;;;;8.01;89.87;101818.50;10532678;27;20134;-76
2022/05/15 02:16:06;;;;;;;20.58;11.13;;;;;;;7.92;89.90;101818.75;10513018;27;20093;-77
2022/05/15 02:21:07;;;;;;;25.75;11.15;;;;;;;7.83;89.85;101820.69;10531738;27;20035;-77
2022/05/15 02:26:07;;;;;;;25.17;12.85;;;;;;;7.84;90.99;101812.97;10513415;27;20043;-76
2022/05/15 02:31:08;;;;;;;22.27;13.15;;;;;;;7.81;90.99;101820.56;10545877;27;20123;-77
2022/05/15 02:36:08;;;;;;;20.10;11.77;;;;;;;7.80;91.15;101805.72;10530753;27;20044;-77
2022/05/15 02:41:09;;;;;;;17.45;12.55;;;;;;;7.72;91.13;101809.44;10530250;27;20089;-77
2022/05/15 02:46:09;;;;;;;23.45;13.40;;;;;;;7.71;92.39;101807.63;10529994;27;20064;-77
2022/05/15 02:51:10;;;;;;;26.83;13.52;;;;;;;7.64;92.55;101814.09;10531057;27;20443;-77
2022/05/15 02:56:22;;;;;;;16.70;9.80;;;;;;;7.49;91.71;101811.25;10528994;27;20130;-76
2022/05/15 03:01:23;;;;;;;23.23;11.77;;;;;;;7.40;92.50;101806.25;10548020;27;20093;-76
2022/05/15 03:06:23;;;;;;;19.92;11.85;;;;;;;7.33;92.36;101791.84;10525384;27;20047;-77
2022/05/15 03:11:24;;;;;;;24.35;12.50;;;;;;;7.31;93.00;101792.53;10529281;27;20044;-77
2022/05/15 03:16:28;;;;;;;20.40;12.02;;;;;;;7.25;92.64;101798.16;10529374;27;20067;-77
2022/05/15 03:21:28;;;;;;;20.35;12.45;;;;;;;7.36;93.50;101793.78;10528894;27;20403;-77
2022/05/15 03:26:29;;;;;;;26.60;13.57;;;;;;;7.37;93.53;101792.09;10528838;27;20047;-77
2022/05/15 03:31:29;;;;;;;27.63;15.52;;;;;;;7.27;93.77;101780.06;10528625;27;20035;-77
2022/05/15 03:36:30;;;;;;;31.90;14.55;;;;;;;7.14;94.15;101780.81;10526974;27;20072;-77
2022/05/15 03:41:30;;;;;;;24.23;13.07;;;;;;;7.13;94.48;101782.53;10492926;28;20056;-76
2022/05/15 03:46:31;;;;;;;23.13;12.55;;;;;;;7.06;94.20;101780.25;10501640;27;20056;-76
2022/05/15 03:51:32;;;;;;;21.17;14.00;;;;;;;6.97;93.42;101780.44;10526910;27;20055;-77
2022/05/15 03:56:51;;;;;;;24.80;12.85;;;;;;;7.14;94.08;101783.44;10511738;27;20157;-76
2022/05/15 04:01:51;;;;;;;22.42;12.18;;;;;;;7.14;94.31;101784.34;10527888;27;20495;-76
2022/05/15 04:06:52;;;;;;;23.83;13.18;;;;;;;7.14;93.94;101788.63;10495211;27;20100;-76
2022/05/15 04:11:52;;;;;;;40.70;17.17;;;;;;;7.19;94.32;101789.91;10509370;27;20502;-76
2022/05/15 04:16:53;;;;;;;36.97;14.77;;;;;;;7.30;94.51;101790.72;10525373;27;20052;-76
2022/05/15 04:21:53;;;;;;;32.10;16.08;;;;;;;7.48;94.53;101793.78;10528247;27;20070;-76
2022/05/15 04:26:54;;;;;;;23.42;13.32;;;;;;;7.58;94.75;101791.09;10521596;27;20071;-77
2022/05/15 04:31:57;;;;;;;24.38;15.00;;;;;;;7.68;94.13;101803.13;10509935;27;20466;-77
2022/05/15 04:36:57;;;;;;;23.20;14.57;;;;;;;7.78;94.33;101804.69;10525071;27;20043;-76
2022/05/15 04:42:00;;;;;;;26.90;13.95;;;;;;;7.97;95.14;101801.75;10525381;27;20059;-77
2022/05/15 04:47:00;;;;;;;26.73;14.23;;;;;;;8.10;93.85;101790.50;10522879;27;20468;-77
2022/05/15 04:52:01;;;;;;;29.08;15.15;;;;;;;8.20;94.26;101799.91;10526937;27;20116;-77
2022/05/15 04:57:01;;;;;;;25.08;14.85;;;;;;;8.38;94.33;101797.69;10524816;27;20052;-77
2022/05/15 05:02:03;;;;;;;30.17;14.05;;;;;;;8.54;94.76;101793.59;10524116;27;20495;-77
2022/05/15 05:07:04;;;;;;;24.60;12.70;;;;;;;8.71;93.96;101803.53;10540694;27;20127;-77
2022/05/15 05:12:06;;;;;;;15.93;10.10;;;;;;;8.94;94.15;101796.41;10524203;27;20490;-77
2022/05/15 05:17:07;;;;;;;30.73;14.05;;;;;;;9.43;95.56;101801.47;10525686;27;20119;-77
2022/05/15 05:22:07;;;;;;;24.52;14.27;;;;;;;10.34;96.23;101809.09;10521075;27;20047;-77
2022/05/15 05:27:08;;;;;;;25.65;13.30;;;;;;;12.47;97.19;101792.75;10516745;27;20060;-77
2022/05/15 05:32:09;;;;;;;15.07;9.90;;;;;;;14.13;78.03;101793.34;10513740;27;20521;-76
2022/05/15 05:37:09;;;;;;;17.45;9.00;;;;;;;15.54;68.69;101796.09;10518253;27;20038;-76
2022/05/15 05:42:10;;;;;;;15.35;8.73;;;;;;;16.63;64.16;101792.50;10522276;27;20047;-76
2022/05/15 05:47:10;;;;;;;21.95;8.57;;;;;;;17.66;61.30;101796.97;10489062;27;20036;-76
2022/05/15 05:52:11;;;;;;;14.87;8.93;;;;;;;18.36;58.58;101793.94;10519256;27;20040;-76
2022/05/15 05:57:11;;;;;;;17.37;8.20;;;;;;;19.01;55.96;101788.75;10526060;27;20499;-77
2022/05/15 06:02:12;;;;;;;16.23;10.33;;;;;;;19.58;52.69;101781.38;10522189;27;20042;-76
2022/05/15 06:07:14;;;;;;;21.50;10.83;;;;;;;19.61;52.14;101776.16;10520001;27;20369;-76
2022/05/15 06:12:16;;;;;;;14.98;9.25;;;;;;;20.43;49.85;101779.81;10523022;27;20483;-75
2022/05/15 06:17:20;;;;;;;;;;;;;;;21.48;46.91;101775.63;10505696;27;20044;-77
2022/05/15 06:22:21;;;;;;;14.27;8.50;;;;;;;22.09;45.31;101776.59;10517360;27;19924;-77
2022/05/15 06:27:21;;;;;;;23.73;18.30;;;;;;;22.10;44.90;101773.97;10497018;27;20129;-77
2022/05/15 06:32:22;;;;;;;21.97;11.03;;;;;;;23.31;40.88;101772.75;10528121;27;20434;-77
2022/05/15 06:37:22;;;;;;;12.73;7.97;;;;;;;23.73;40.44;101764.19;10529405;27;20036;-76
2022/05/15 06:42:23;;;;;;;15.73;8.37;;;;;;;24.25;42.84;101760.94;10502312;27;20686;-76
2022/05/15 06:47:24;;;;;;;15.40;7.87;;;;;;;25.81;38.29;101767.53;10523122;27;20071;-76
2022/05/15 06:52:25;;;;;;;12.90;7.45;;;;;;;25.44;37.55;101773.75;10530462;27;20074;-76
2022/05/15 06:57:28;;;;;;;;;;;;;;;25.60;37.48;101776.47;10529973;27;20092;-74
2022/05/15 07:02:29;;;;;;;16.45;8.75;;;;;;;25.00;37.90;101766.56;10528999;27;19927;-76
2022/05/15 07:07:30;;;;;;;17.42;7.40;;;;;;;23.88;40.78;101768.72;10529241;27;20040;-75
2022/05/15 07:12:31;;;;;;;11.63;7.25;;;;;;;25.25;38.65;101767.53;10527062;27;20040;-75
2022/05/15 07:17:31;;;;;;;13.70;9.18;;;;;;;26.88;35.36;101767.16;10526435;27;20058;-77
2022/05/15 07:22:33;;;;;;;9.00;6.50;;;;;;;26.93;35.24;101759.09;10526685;27;20383;-76
2022/05/15 07:27:33;;;;;;;11.45;6.13;;;;;;;26.82;34.88;101775.22;10498025;27;20065;-75
2022/05/15 07:32:34;;;;;;;16.90;8.33;;;;;;;26.20;37.07;101767.44;10517620;27;20445;-75
2022/05/15 07:37:35;;;;;;;13.05;6.25;;;;;;;26.81;37.11;101760.00;10525505;27;20785;-76
2022/05/15 07:42:38;;;;;;;8.75;5.40;;;;;;;28.44;34.14;101761.28;10510284;27;20044;-77
2022/05/15 07:47:38;;;;;;;15.02;6.32;;;;;;;29.40;32.26;101767.97;10526279;27;20039;-76
2022/05/15 07:52:39;;;;;;;10.90;6.03;;;;;;;29.96;30.00;101755.28;10528249;27;20043;-76
2022/05/15 07:57:39;;;;;;;9.70;6.45;;;;;;;31.03;28.08;101753.03;10526115;27;20032;-76
2022/05/15 08:02:41;;;;;;;9.52;5.25;;;;;;;30.53;30.22;101742.41;10527145;27;20123;-77
2022/05/15 08:13:01;;;;;;;15.68;6.38;;;;;;;29.05;31.59;101750.56;10508377;27;20036;-77
2022/05/15 08:23:33;;;;;;;;;;;;;;;30.22;28.62;101744.00;10549169;27;20490;-76
2022/05/15 08:23:34;;;;;;;9.98;4.40;;;;;;;29.57;28.37;101746.09;10567652;27;19919;-77
2022/05/15 08:28:34;;;;;;;9.98;4.68;;;;;;;29.54;28.05;101738.06;10482729;28;20036;-76
2022/05/15 08:33:35;;;;;;;;;;;;;;;29.83;27.74;101733.94;10466955;28;20121;-76
2022/05/15 08:38:36;;;;;;;9.83;4.60;;;;;;;30.56;28.53;101720.75;10485670;28;19955;-80
2022/05/15 08:44:02;;;;;;;11.52;5.53;;;;;;;30.78;26.51;101715.78;10466068;28;20460;-77
2022/05/15 08:49:15;;;;;;;11.05;4.95;;;;;;;30.77;26.90;101700.50;10491348;27;20051;-78
2022/05/15 08:54:15;;;;;;;8.15;5.93;;;;;;;30.28;26.52;101700.66;10523071;27;20059;-79
2022/05/15 08:59:30;;;;;;;;;;;;;;;30.03;25.40;101698.50;10525424;27;20455;-78
2022/05/15 09:04:30;;;;;;;8.23;5.05;;;;;;;30.57;25.68;101698.22;10540768;27;19923;-79
2022/05/15 09:09:34;;;;;;;;;;;;;;;31.29;24.96;101689.31;10525129;27;20070;-78
2022/05/15 09:14:58;;;;;;;9.85;4.88;;;;;;;30.86;24.80;101689.47;10526381;27;19924;-77
2022/05/15 09:20:03;;;;;;;10.30;6.30;;;;;;;30.95;25.29;101690.16;10541419;27;20047;-77
2022/05/15 09:25:16;;;;;;;14.35;4.88;;;;;;;31.84;25.09;101697.75;10506893;27;20360;-77
2022/05/15 09:30:16;;;;;;;14.60;5.45;;;;;;;31.37;24.55;101691.81;10524234;27;20038;-78
2022/05/15 09:35:28;;;;;;;;;;;;;;;31.10;23.44;101687.06;10523966;27;20054;-77
2022/05/15 09:43:30;;;;;;;10.90;6.00;;;;;;;31.10;24.00;101692.47;10540699;27;20325;-77
2022/05/15 09:46:11;;;;;;;11.82;5.72;;;;;;;30.43;24.63;101688.63;10527216;27;20492;-76
2022/05/15 09:51:12;;;;;;;10.18;4.97;;;;;;;30.52;24.56;101687.53;10548746;27;20050;-77
2022/05/15 09:56:31;;;;;;;;;;;;;;;30.85;24.33;101671.47;10531897;27;20036;-75
2022/05/15 10:01:36;;;;;;;14.07;4.97;;;;;;;30.25;24.90;101678.25;10490356;28;20015;-76
2022/05/15 10:06:51;;;;;;;9.25;4.85;;;;;;;31.35;24.78;101672.94;10490053;28;20123;-77
2022/05/15 10:12:05;;;;;;;8.85;5.22;;;;;;;30.18;25.74;101681.06;10489804;28;20098;-77
2022/05/15 10:17:05;;;;;;;8.43;5.22;;;;;;;31.52;26.77;101672.47;10507610;28;20060;-76
2022/05/15 10:22:14;;;;;;;10.80;5.18;;;;;;;32.14;25.21;101668.00;10511445;27;20124;-77
2022/05/15 10:27:25;;;;;;;8.13;5.35;;;;;;;32.02;23.40;101668.38;10513220;27;20093;-76
2022/05/15 10:32:39;;;;;;;8.40;4.28;;;;;;;32.52;24.44;101667.78;10530019;28;20059;-77
2022/05/15 10:38:24;;;;;;;9.30;4.72;;;;;;;33.02;21.88;101661.63;10531164;28;20036;-77
2022/05/15 10:44:02;;;;;;;12.80;4.18;;;;;;;32.35;25.08;101655.66;10428298;27;20143;-78
2022/05/15 10:49:39;;;;;;;9.48;3.92;;;;;;;32.11;22.87;101656.38;10525565;27;20036;-77
2022/05/15 11:00:21;;;;;;;10.95;6.55;;;;;;;31.87;23.35;101634.53;10527905;27;20044;-76
2022/05/15 11:05:24;;;;;;;12.13;4.70;;;;;;;31.51;24.01;101629.25;10531331;27;20036;-77
2022/05/15 11:11:03;;;;;;;10.68;4.30;;;;;;;31.13;23.00;101618.50;10543906;27;20062;-77
2022/05/15 11:16:11;;;;;;;11.82;5.55;;;;;;;30.97;24.73;101621.63;10528113;27;20101;-76
2022/05/15 11:21:20;;;;;;;10.43;5.00;;;;;;;31.53;25.11;101606.63;10542573;27;20445;-76
2022/05/15 11:26:27;;;;;;;8.98;4.10;;;;;;;31.90;23.78;101610.09;10526109;27;20063;-77
2022/05/15 11:31:30;;;;;;;7.28;3.60;;;;;;;32.13;24.46;101616.63;10544308;27;20043;-77
2022/05/15 11:36:42;;;;;;;8.48;4.50;;;;;;;32.79;21.65;101606.34;10485855;27;20479;-78
2022/05/15 11:41:42;;;;;;;9.43;4.63;;;;;;;32.62;22.66;101592.47;10532216;27;20383;-77
2022/05/15 11:46:45;;;;;;;25.00;18.17;;;;;;;32.47;23.83;101583.06;10527334;27;20040;-79
2022/05/15 11:51:57;;;;;;;9.80;5.28;;;;;;;32.55;23.13;101569.25;10527534;27;20134;-77
2022/05/15 11:56:57;;;;;;;;;;;;;;;32.80;22.04;101564.75;10557900;27;20036;-79
2022/05/15 12:02:00;;;;;;;7.83;3.97;;;;;;;31.63;22.25;101558.56;10526781;27;19924;-79
2022/05/15 12:07:01;;;;;;;7.93;3.65;;;;;;;31.90;22.68;101556.84;10501931;27;20101;-79
2022/05/15 12:12:20;;;;;;;8.53;4.13;;;;;;;32.04;23.49;101536.56;10527006;28;20093;-76
2022/05/15 12:17:26;;;;;;;9.27;3.83;;;;;;;30.47;24.41;101551.75;10527017;28;20040;-78
2022/05/15 12:22:26;;;;;;;11.00;4.15;;;;;;;30.25;26.43;101549.56;10509341;28;20505;-79
2022/05/15 12:27:27;;;;;;;10.43;3.97;;;;;;;31.92;23.75;101543.28;10525372;28;20028;-78
2022/05/15 12:32:35;;;;;;;10.40;3.80;;;;;;;32.58;22.52;101542.06;10508300;28;20056;-78
2022/05/15 12:38:01;;;;;;;7.10;3.53;;;;;;;32.93;21.71;101524.59;10543161;27;20276;-78
2022/05/15 12:43:02;;;;;;;9.88;4.57;;;;;;;31.74;23.83;101536.59;10567999;27;20391;-79
2022/05/15 12:48:10;;;;;;;;;;;;;;;31.57;23.44;101510.91;10568032;27;20059;-80
2022/05/15 12:53:18;;;;;;;10.25;3.85;;;;;;;31.44;22.18;101509.53;10528712;28;20351;-77
2022/05/15 12:58:30;;;;;;;17.55;4.18;;;;;;;29.97;24.32;101507.03;10526003;28;20080;-80
2022/05/15 13:03:30;;;;;;;8.85;4.13;;;;;;;30.46;24.15;101498.66;10507776;28;20560;-79
2022/05/15 13:08:51;;;;;;;6.10;2.45;;;;;;;31.74;23.56;101490.59;10526115;28;20036;-79
2022/05/15 13:13:55;;;;;;;6.20;2.60;;;;;;;31.35;23.99;101492.63;10509449;28;20089;-81
2022/05/15 13:18:56;;;;;;;10.48;4.40;;;;;;;31.01;23.49;101481.91;10507926;28;20123;-81
2022/05/15 13:23:57;;;;;;;7.68;2.42;;;;;;;31.12;23.28;101470.78;10507438;28;20036;-80
2022/05/15 13:28:59;;;;;;;8.35;3.10;;;;;;;30.85;22.69;101473.34;10523896;28;20563;-80
2022/05/15 13:34:01;;;;;;;8.25;2.65;;;;;;;31.71;23.08;101471.75;10491777;28;20032;-80
2022/05/15 13:44:26;;;;;;;9.02;2.95;;;;;;;30.71;23.00;101463.81;10525706;28;20044;-79
2022/05/15 13:49:46;;;;;;;10.00;3.90;;;;;;;31.19;23.46;101462.50;10506959;28;20067;-81
2022/05/15 13:54:46;;;;;;;5.38;3.35;;;;;;;31.28;24.95;101461.31;10508460;28;20040;-80
2022/05/15 13:59:50;;;;;;;10.20;3.13;;;;;;;31.50;23.45;101452.53;10523377;28;20487;-80
2022/05/15 14:05:15;;;;;;;10.50;3.42;;;;;;;32.11;21.92;101443.41;10525566;28;20066;-81
2022/05/15 14:10:18;;;;;;;8.82;4.05;;;;;;;32.04;21.90;101436.41;10528969;27;20059;-80
2022/05/15 14:15:50;;;;;;;8.20;2.55;;;;;;;31.81;22.51;101424.53;10532317;27;20417;-79
2022/05/15 14:20:52;;;;;;;7.07;2.85;;;;;;;31.34;22.96;101435.94;10538291;27;20048;-81
2022/05/15 14:25:53;;;;;;;7.45;3.55;;;;;;;30.97;21.64;101432.47;10497293;27;20047;-78
2022/05/15 14:30:54;;;;;;;6.28;2.80;;;;;;;29.89;23.59;101423.56;10528992;27;20392;-79
2022/05/15 14:36:11;;;;;;;7.97;2.78;;;;;;;29.77;23.98;101423.84;10523169;27;20035;-80
2022/05/15 14:41:12;;;;;;;5.93;2.60;;;;;;;29.64;22.65;101417.88;10537812;27;20044;-77
2022/05/15 14:46:18;;;;;;;8.02;2.85;;;;;;;28.74;24.27;101408.97;10529497;27;20036;-79
2022/05/15 14:51:20;;;;;;;3.85;2.58;;;;;;;29.71;25.98;101397.94;10528211;27;20044;-78
2022/05/15 14:56:22;;;;;;;6.60;2.75;;;;;;;29.19;23.95;101385.63;10554949;27;20372;-79
2022/05/15 15:01:27;;;;;;;6.60;2.63;;;;;;;28.69;24.93;101386.63;10544115;27;20118;-78
2022/05/15 15:06:28;;;;;;;9.30;2.40;;;;;;;28.77;24.19;101378.41;10529144;27;20028;-78
2022/05/15 15:11:30;;;;;;;;;;;;;;;28.33;25.03;101390.00;10527772;27;20514;-80
2022/05/15 15:16:33;;;;;;;11.15;4.05;;;;;;;27.17;27.84;101379.22;10530988;27;19928;-81
2022/05/15 15:21:34;;;;;;;6.63;2.45;;;;;;;26.39;27.13;101369.34;10529879;27;20039;-77
2022/05/15 15:26:35;;;;;;;5.57;1.93;;;;;;;26.25;27.86;101365.91;10525657;27;20032;-79
2022/05/15 15:31:36;;;;;;;5.28;2.50;;;;;;;26.14;27.16;101357.06;10508924;27;20448;-78
2022/05/15 15:36:38;;;;;;;5.07;2.00;;;;;;;26.01;27.77;101346.44;10533434;27;20088;-77
2022/05/15 15:41:39;;;;;;;5.95;2.45;;;;;;;26.03;28.13;101349.13;10514583;27;20501;-77
2022/05/15 15:46:39;;;;;;;19.27;4.87;;;;;;;25.93;28.49;101330.44;10531365;27;20051;-80
2022/05/15 15:51:40;;;;;;;4.90;1.87;;;;;;;25.96;27.85;101324.16;10527576;27;20040;-77
2022/05/15 15:56:43;;;;;;;4.93;2.92;;;;;;;25.95;28.02;101315.22;10510087;27;20056;-77
2022/05/15 16:01:44;;;;;;;18.42;9.25;;;;;;;25.80;28.49;101323.41;10564726;27;20190;-76
2022/05/15 16:06:44;;;;;;;3.93;2.30;;;;;;;25.96;28.43;101318.78;10530282;27;20048;-77
2022/05/15 16:11:47;;;;;;;5.17;2.40;;;;;;;25.80;26.99;101305.53;10526104;27;20044;-78
2022/05/15 16:16:49;;;;;;;9.05;2.22;;;;;;;25.75;28.21;101304.66;10528464;27;20063;-79
2022/05/15 16:21:51;;;;;;;3.20;1.55;;;;;;;25.62;28.08;101303.00;10524849;27;20471;-76
2022/05/15 16:26:52;;;;;;;;;;;;;;;25.61;28.28;101296.75;10511102;27;20040;-79
2022/05/15 16:31:52;;;;;;;13.18;2.85;;;;;;;25.47;28.63;101288.81;10534860;27;19924;-78
2022/05/15 16:36:53;;;;;;;14.00;9.13;;;;;;;25.38;29.30;101286.19;10527200;27;20444;-78
2022/05/15 16:41:54;;;;;;;5.60;2.60;;;;;;;25.36;28.68;101272.81;10554152;27;20064;-80
2022/05/15 16:46:55;;;;;;;8.23;3.33;;;;;;;25.28;29.11;101273.75;10524045;27;20040;-77
2022/05/15 16:51:56;;;;;;;9.07;2.67;;;;;;;25.30;30.02;101277.31;10525184;27;20039;-82
2022/05/15 16:56:56;;;;;;;10.03;2.97;;;;;;;25.28;29.85;101281.78;10514918;27;20119;-77
2022/05/15 17:01:57;;;;;;;4.90;3.00;;;;;;;25.22;28.69;101280.06;10553542;27;20062;-79
2022/05/15 17:06:57;;;;;;;5.67;2.20;;;;;;;25.13;29.19;101267.59;10513611;27;20071;-81
2022/05/15 17:11:58;;;;;;;7.67;2.60;;;;;;;25.01;29.20;101255.19;10523071;27;20151;-79
2022/05/15 17:16:58;;;;;;;5.27;3.00;;;;;;;24.98;30.07;101262.34;10520674;27;20051;-78
2022/05/15 17:21:59;;;;;;;7.20;2.67;;;;;;;24.87;29.85;101249.03;10520491;27;20123;-76
2022/05/15 17:27:07;;;;;;;5.43;2.27;;;;;;;24.70;31.21;101250.00;10522995;27;20129;-78
2022/05/15 17:37:32;;;;;;;4.47;2.53;;;;;;;24.39;30.53;101241.19;10524317;27;20036;-78
2022/05/15 17:42:32;;;;;;;5.03;2.00;;;;;;;24.19;32.31;101242.16;10506366;27;20044;-77
2022/05/15 17:47:36;;;;;;;6.43;2.67;;;;;;;23.98;31.43;101233.25;10529279;27;20051;-77
2022/05/15 17:52:37;;;;;;;7.47;3.35;;;;;;;23.80;32.70;101230.63;10524781;27;20032;-78
2022/05/15 17:57:38;;;;;;;6.17;3.37;;;;;;;23.59;32.83;101229.75;10522813;27;20035;-78
2022/05/15 18:02:38;;;;;;;6.37;2.97;;;;;;;23.29;34.29;101213.75;10521969;27;20040;-80
2022/05/15 18:07:39;;;;;;;5.30;1.87;;;;;;;23.16;33.17;101209.25;10502684;27;20040;-77
2022/05/15 18:12:39;;;;;;;8.23;2.83;;;;;;;22.99;35.38;101206.56;10530618;27;20062;-78
2022/05/15 18:17:40;;;;;;;5.87;2.47;;;;;;;22.59;34.38;101212.69;10534213;27;20115;-77
2022/05/15 18:22:41;;;;;;;5.30;2.23;;;;;;;22.38;35.71;101206.38;10526975;27;20044;-78
2022/05/15 18:27:43;;;;;;;10.40;2.60;;;;;;;22.17;36.29;101224.94;10487213;27;20686;-77
2022/05/15 18:32:44;;;;;;;4.68;2.45;;;;;;;21.78;37.67;101227.34;10509105;27;20073;-79
2022/05/15 18:37:44;;;;;;;5.85;2.33;;;;;;;21.51;38.09;101223.56;10526640;27;20495;-79
2022/05/15 18:42:48;;;;;;;8.90;2.17;;;;;;;21.22;38.86;101221.53;10539559;27;20130;-81
2022/05/15 18:47:50;;;;;;;5.55;2.40;;;;;;;21.00;40.17;101218.69;10497516;28;20422;-81
2022/05/15 18:58:10;;;;;;;4.68;3.30;;;;;;;20.04;43.68;101225.47;10525012;27;20036;-78
2022/05/15 19:03:11;;;;;;;7.43;2.92;;;;;;;19.58;44.36;101220.31;10527095;27;20036;-78
2022/05/15 19:08:11;;;;;;;5.17;2.60;;;;;;;19.21;45.74;101223.25;10527177;28;20197;-78
2022/05/15 19:13:12;;;;;;;7.55;3.67;;;;;;;18.94;45.35;101229.78;10510099;27;20081;-81
2022/05/15 19:18:13;;;;;;;7.18;2.75;;;;;;;18.74;46.80;101237.38;10507276;27;20043;-79
2022/05/15 19:23:13;;;;;;;7.20;3.65;;;;;;;18.19;49.66;101233.59;10513427;27;20516;-79
2022/05/15 19:28:14;;;;;;;5.32;3.80;;;;;;;17.84;50.79;101228.34;10516151;27;20063;-79
2022/05/15 19:33:14;;;;;;;5.68;2.60;;;;;;;17.56;51.78;101232.09;10511712;28;20036;-78
2022/05/15 19:38:15;;;;;;;9.80;2.90;;;;;;;17.44;52.19;101240.59;10514239;27;20123;-78
2022/05/15 19:43:17;;;;;;;5.20;2.65;;;;;;;17.49;52.74;101257.50;10516773;27;20544;-78
2022/05/15 19:48:17;;;;;;;8.48;3.22;;;;;;;17.28;52.77;101255.22;10526887;28;20851;-78
2022/05/15 19:53:18;;;;;;;5.93;3.92;;;;;;;17.15;53.81;101254.88;10519520;27;20127;-78
2022/05/15 19:58:18;;;;;;;5.38;2.20;;;;;;;16.95;53.59;101262.22;10514167;27;20078;-78
2022/05/15 20:03:19;;;;;;;8.68;3.15;;;;;;;16.93;54.94;101263.03;10503182;28;20065;-78
2022/05/15 20:13:39;;;;;;;8.57;3.20;;;;;;;17.17;55.12;101282.25;10478713;27;20032;-79
2022/05/15 20:18:39;;;;;;;10.13;3.75;;;;;;;17.14;55.34;101282.19;10512625;27;20032;-78
2022/05/15 20:23:42;;;;;;;5.72;2.95;;;;;;;16.91;56.31;101286.78;10521598;28;20476;-79
2022/05/15 20:28:42;;;;;;;8.10;3.85;;;;;;;16.78;57.40;101297.84;10518683;27;20495;-79
2022/05/15 20:33:43;;;;;;;8.57;3.85;;;;;;;16.83;56.73;101293.59;10522644;28;20044;-78
2022/05/15 20:38:43;;;;;;;7.40;2.90;;;;;;;16.92;56.29;101291.22;10523455;27;20036;-79
2022/05/15 20:43:44;;;;;;;7.50;3.42;;;;;;;16.84;57.07;101293.66;10530793;27;20060;-78
2022/05/15 20:48:44;;;;;;;9.05;3.50;;;;;;;16.67;58.23;101297.56;10505171;27;20115;-78
2022/05/15 20:53:45;;;;;;;11.80;3.70;;;;;;;16.42;59.06;101307.38;10513144;27;20114;-79
2022/05/15 20:58:46;;;;;;;5.25;3.75;;;;;;;16.28;60.03;101304.31;10486238;27;20048;-78
2022/05/15 21:03:46;;;;;;;10.60;3.90;;;;;;;16.05;60.57;101308.88;10525383;27;20055;-78
2022/05/15 21:08:47;;;;;;;10.98;5.43;;;;;;;15.82;61.42;101309.88;10524542;27;20105;-78
2022/05/15 21:13:49;;;;;;;5.43;4.38;;;;;;;15.76;61.95;101308.78;10506178;27;20115;-79
2022/05/15 21:18:49;;;;;;;10.37;3.67;;;;;;;15.69;61.73;101308.56;10526226;27;20039;-78
2022/05/15 21:23:50;;;;;;;10.75;3.80;;;;;;;15.64;63.13;101303.97;10513657;27;20495;-78
2022/05/15 21:28:50;;;;;;;5.90;3.85;;;;;;;15.60;62.55;101304.72;10482741;28;20040;-78
2022/05/15 21:33:51;;;;;;;10.70;3.50;;;;;;;15.49;63.32;101299.97;10520919;27;20569;-78
2022/05/15 21:44:10;;;;;;;10.30;4.18;;;;;;;15.55;64.53;101296.66;10525119;27;20443;-78
2022/05/15 21:49:11;;;;;;;13.15;3.90;;;;;;;15.40;64.37;101292.66;10540932;27;20063;-78
2022/05/15 21:54:11;;;;;;;10.02;5.22;;;;;;;15.31;63.45;101291.41;10503889;27;20059;-78
2022/05/15 22:04:31;;;;;;;15.30;4.82;;;;;;;15.09;65.46;101285.38;10522198;27;20044;-78
2022/05/15 22:09:32;;;;;;;10.07;4.57;;;;;;;14.91;65.94;101275.97;10493159;28;20534;-78
2022/05/15 22:14:32;;;;;;;8.52;4.03;;;;;;;14.72;67.51;101273.50;10526482;27;20044;-78
2022/05/15 22:19:35;;;;;;;7.97;4.93;;;;;;;14.52;67.84;101273.63;10521752;27;20452;-78
2022/05/15 22:24:35;;;;;;;8.98;3.75;;;;;;;14.41;68.36;101262.69;10490448;28;20039;-78
2022/05/15 22:29:36;;;;;;;10.32;4.97;;;;;;;14.29;68.46;101267.47;10513127;27;20056;-78
2022/05/15 22:34:36;;;;;;;7.80;3.80;;;;;;;14.14;69.87;101255.50;10480638;27;20055;-78
2022/05/15 22:39:38;;;;;;;11.70;4.57;;;;;;;14.12;70.62;101245.75;10514740;27;20132;-78
2022/05/15 22:44:38;;;;;;;10.43;5.57;;;;;;;14.02;70.67;101236.59;10528461;27;20044;-78
2022/05/15 22:49:39;;;;;;;8.93;4.10;;;;;;;13.87;71.00;101231.63;10508247;27;20267;-78
2022/05/15 22:54:39;;;;;;;7.38;3.95;;;;;;;13.82;71.56;101223.56;10518058;27;20064;-78
2022/05/15 22:59:41;;;;;;;11.43;5.35;;;;;;;13.67;72.19;101226.44;10510239;27;20047;-78
2022/05/15 23:10:03;;;;;;;11.20;5.80;;;;;;;13.66;72.06;101219.41;10531567;27;20060;-78
2022/05/15 23:15:05;;;;;;;8.93;5.28;;;;;;;13.52;72.78;101218.84;10511417;27;20046;-78
2022/05/15 23:20:07;;;;;;;13.43;4.70;;;;;;;13.36;73.42;101210.28;10509990;27;20046;-79
2022/05/15 23:25:08;;;;;;;11.00;4.85;;;;;;;13.23;73.77;101210.59;10529780;27;20301;-79
2022/05/15 23:30:10;;;;;;;10.13;5.78;;;;;;;13.16;73.75;101213.81;10486739;28;20120;-79
2022/05/15 23:35:11;;;;;;;8.73;5.20;;;;;;;13.03;75.18;101207.13;10497823;27;20055;-78
2022/05/15 23:40:12;;;;;;;9.43;5.60;;;;;;;13.05;74.96;101203.75;10513810;27;20040;-79
2022/05/15 23:45:16;;;;;;;10.40;6.25;;;;;;;13.05;75.29;101200.19;10509968;27;20101;-78
2022/05/15 23:50:16;;;;;;;8.82;4.25;;;;;;;13.03;75.30;101184.38;10509458;27;20417;-78
2022/05/15 23:55:17;;;;;;;8.32;5.78;;;;;;;12.96;75.45;101195.47;10527693;27;20028;-78
